Time;durP1;ratioP1;P1;durP2;ratioP2;P2;SDS_P1;SDS_P2;PMS_P1;PMS_P2;Temp;Humidity;BMP_temperature;BMP_pressure;BME280_temperature;BME280_humidity;BME280_pressure;Samples;Min_cycle;Max_cycle;Signal;HPM_P1;HPM_P2
2022/09/05 00:00:05;;;;;;;5.95;2.55;;;23.00;78.30;;;;;;5070460;28;20207;-42
2022/09/05 00:02:44;;;;;;;2.53;1.92;;;22.90;78.20;;;;;;5067278;28;20206;-41
2022/09/05 00:05:47;;;;;;;2.95;2.00;;;22.90;78.60;;;;;;5069334;28;20207;-41
2022/09/05 00:09:03;;;;;;;4.25;1.88;;;22.90;78.60;;;;;;5051443;28;20196;-40
2022/09/05 00:11:41;;;;;;;3.17;2.08;;;22.80;79.00;;;;;;5082413;28;20273;-41
2022/09/05 00:14:49;;;;;;;4.85;2.05;;;22.70;78.80;;;;;;5088317;28;20240;-41
2022/09/05 00:17:59;;;;;;;3.13;2.25;;;22.70;78.70;;;;;;5068893;28;20773;-41
2022/09/05 00:20:59;;;;;;;2.00;1.77;;;22.70;78.70;;;;;;5049835;28;20305;-42
2022/09/05 00:24:13;;;;;;;2.55;1.70;;;22.60;78.80;;;;;;5050677;28;20302;-42
2022/09/05 00:27:21;;;;;;;3.67;1.80;;;22.60;79.40;;;;;;5064897;28;20204;-41
2022/09/05 00:30:06;;;;;;;2.20;1.65;;;22.50;79.00;;;;;;5069888;28;20226;-42
2022/09/05 00:33:00;;;;;;;3.58;2.20;;;22.50;79.40;;;;;;5050111;28;20208;-42
2022/09/05 00:35:57;;;;;;;3.30;1.80;;;22.40;79.20;;;;;;5049835;28;20239;-41
2022/09/05 00:38:28;;;;;;;3.33;1.77;;;22.40;79.50;;;;;;5049647;28;20246;-41
2022/09/05 00:41:12;;;;;;;3.38;1.90;;;22.40;79.00;;;;;;5054631;28;20211;-41
2022/09/05 00:43:48;;;;;;;3.70;1.92;;;22.30;79.40;;;;;;5049962;28;20253;-43
2022/09/05 00:46:34;;;;;;;4.35;1.60;;;22.30;79.50;;;;;;5057304;28;20199;-43
2022/09/05 00:49:43;;;;;;;2.45;1.98;;;22.30;79.60;;;;;;5069309;28;20214;-41
2022/09/05 00:52:40;;;;;;;4.18;2.00;;;22.20;79.20;;;;;;5066455;28;20199;-40
2022/09/05 00:55:37;;;;;;;3.22;1.77;;;22.20;79.90;;;;;;5064740;28;20241;-40
2022/09/05 00:58:16;;;;;;;2.45;1.88;;;22.20;80.00;;;;;;5066543;28;20232;-40
2022/09/05 01:00:57;;;;;;;2.67;1.90;;;22.10;79.60;;;;;;5066473;28;20828;-41
2022/09/05 01:03:34;;;;;;;3.50;2.00;;;22.10;79.50;;;;;;5064049;28;20301;-39
2022/09/05 01:06:34;;;;;;;4.10;2.33;;;22.10;79.80;;;;;;5061344;28;20231;-40
2022/09/05 01:09:04;;;;;;;2.28;1.80;;;22.10;79.90;;;;;;5049487;28;20216;-39
2022/09/05 01:11:36;;;;;;;2.22;1.85;;;22.00;79.50;;;;;;5069965;28;20234;-40
2022/09/05 01:14:26;;;;;;;2.88;1.90;;;22.00;79.60;;;;;;5050928;28;20571;-39
2022/09/05 01:17:05;;;;;;;3.22;2.13;;;22.00;80.10;;;;;;5047779;28;20204;-39
2022/09/05 01:20:18;;;;;;;3.38;2.05;;;21.90;79.90;;;;;;5051732;28;20291;-39
2022/09/05 01:23:08;;;;;;;4.95;2.00;;;21.90;80.30;;;;;;5047585;28;20228;-39
2022/09/05 01:25:56;;;;;;;2.55;1.98;;;21.90;80.00;;;;;;5052817;28;20560;-39
2022/09/05 01:28:53;;;;;;;2.30;1.85;;;21.80;80.30;;;;;;5053774;28;20207;-39
2022/09/05 01:31:58;;;;;;;3.03;1.90;;;21.80;80.20;;;;;;5059966;28;20233;-39
2022/09/05 01:34:45;;;;;;;3.05;2.05;;;21.80;79.90;;;;;;5058089;28;20766;-40
2022/09/05 01:37:21;;;;;;;2.50;2.10;;;21.70;80.10;;;;;;5048775;28;20196;-43
2022/09/05 01:40:24;;;;;;;2.83;2.03;;;21.70;80.00;;;;;;5052789;28;20567;-43
2022/09/05 01:43:03;;;;;;;3.55;1.92;;;21.70;80.40;;;;;;5068726;28;20211;-43
2022/09/05 01:45:44;;;;;;;2.33;1.85;;;21.70;80.00;;;;;;5056509;28;20204;-43
2022/09/05 01:48:29;;;;;;;2.28;1.85;;;21.70;80.10;;;;;;5047638;28;20204;-43
2022/09/05 01:51:32;;;;;;;5.10;2.00;;;21.70;80.40;;;;;;5054520;28;20223;-43
2022/09/05 01:53:59;;;;;;;2.72;2.03;;;21.60;80.40;;;;;;5066025;28;20613;-39
2022/09/05 01:56:51;;;;;;;3.72;2.33;;;21.60;80.10;;;;;;5068750;28;20196;-39
2022/09/05 01:59:43;;;;;;;4.13;2.08;;;21.60;80.40;;;;;;5066291;28;20634;-39
2022/09/05 02:02:30;;;;;;;2.85;1.85;;;21.50;80.80;;;;;;5068506;28;20670;-39
2022/09/05 02:05:50;;;;;;;1.98;1.77;;;21.50;80.60;;;;;;5064050;28;20270;-39
2022/09/05 02:08:41;;;;;;;2.97;2.05;;;21.50;81.00;;;;;;5039135;28;20653;-39
2022/09/05 02:11:15;;;;;;;5.20;2.22;;;21.40;80.70;;;;;;5068349;28;20685;-39
2022/09/05 02:14:20;;;;;;;4.22;2.05;;;21.40;80.30;;;;;;5062754;28;20259;-38
2022/09/05 02:17:35;;;;;;;3.47;2.08;;;21.40;81.10;;;;;;5067348;28;20212;-39
2022/09/05 02:20:33;;;;;;;3.42;2.03;;;21.40;80.80;;;;;;5067660;28;20230;-42
2022/09/05 02:23:19;;;;;;;4.68;2.08;;;21.40;80.80;;;;;;5054239;28;20204;-42
2022/09/05 02:26:45;;;;;;;3.72;2.17;;;21.40;81.00;;;;;;5048219;28;20291;-43
2022/09/05 02:29:19;;;;;;;3.72;2.05;;;21.40;81.10;;;;;;5057360;28;20223;-43
2022/09/05 02:32:09;;;;;;;2.22;2.03;;;21.40;80.80;;;;;;5047882;28;20694;-42
2022/09/05 02:34:39;;;;;;;2.28;1.95;;;21.40;81.10;;;;;;5058888;28;20219;-42
2022/09/05 02:37:40;;;;;;;3.92;2.08;;;21.30;80.80;;;;;;5065849;28;20261;-43
2022/09/05 02:40:36;;;;;;;3.03;2.08;;;21.30;81.20;;;;;;5049254;28;20626;-43
2022/09/05 02:43:41;;;;;;;2.28;2.03;;;21.30;81.00;;;;;;5065402;28;20699;-43
2022/09/05 02:47:14;;;;;;;2.88;1.95;;;21.30;80.80;;;;;;5067403;28;20687;-43
2022/09/05 02:49:49;;;;;;;3.25;2.47;;;21.30;81.40;;;;;;5065797;28;20751;-43
2022/09/05 02:52:42;;;;;;;2.70;1.83;;;21.20;81.10;;;;;;5045918;28;20662;-43
2022/09/05 02:56:01;;;;;;;3.45;1.92;;;21.20;80.90;;;;;;5047031;28;20204;-43
2022/09/05 02:59:01;;;;;;;4.85;2.15;;;21.30;81.50;;;;;;5049155;28;20573;-42
2022/09/05 03:01:57;;;;;;;3.67;2.10;;;21.20;80.70;;;;;;5065659;28;20797;-43
2022/09/05 03:04:36;;;;;;;2.33;2.05;;;21.30;81.10;;;;;;5067014;28;20603;-42
2022/09/05 03:07:20;;;;;;;4.53;1.92;;;21.30;81.10;;;;;;5065430;28;20717;-42
2022/09/05 03:10:29;;;;;;;3.20;2.15;;;21.30;81.40;;;;;;5067209;28;20213;-42
2022/09/05 03:13:37;;;;;;;2.08;1.85;;;21.30;81.60;;;;;;5071777;28;20196;-42
2022/09/05 03:16:42;;;;;;;4.05;2.00;;;21.30;81.40;;;;;;5048289;28;20446;-42
2022/09/05 03:20:02;;;;;;;3.10;1.92;;;21.30;81.20;;;;;;5047107;28;20283;-42
2022/09/05 03:22:47;;;;;;;2.60;1.85;;;21.30;81.70;;;;;;5045324;28;20254;-42
2022/09/05 03:25:56;;;;;;;2.08;1.63;;;21.30;81.30;;;;;;5046374;28;20208;-42
2022/09/05 03:28:52;;;;;;;3.65;2.10;;;21.30;81.10;;;;;;5046782;28;20206;-42
2022/09/05 03:31:43;;;;;;;3.83;1.90;;;21.30;81.50;;;;;;5051804;28;20333;-42
2022/09/05 03:34:34;;;;;;;2.53;1.88;;;21.30;81.50;;;;;;5054915;28;20223;-42
2022/09/05 03:37:13;;;;;;;3.63;2.03;;;21.30;81.40;;;;;;5049285;28;20299;-42
2022/09/05 03:40:08;;;;;;;2.75;2.00;;;21.30;81.50;;;;;;5050909;28;20583;-42
2022/09/05 03:43:00;;;;;;;3.30;2.00;;;21.30;81.10;;;;;;5050391;28;20285;-42
2022/09/05 03:45:49;;;;;;;3.60;2.40;;;21.30;81.30;;;;;;5066363;28;20215;-42
2022/09/05 03:48:54;;;;;;;2.70;2.10;;;21.30;81.50;;;;;;5055260;28;20609;-42
2022/09/05 03:51:37;;;;;;;2.92;2.50;;;21.30;81.70;;;;;;5057801;28;20985;-43
2022/09/05 03:55:00;;;;;;;3.63;1.95;;;21.20;81.50;;;;;;5049223;28;20207;-42
2022/09/05 03:58:11;;;;;;;4.80;2.17;;;21.20;81.70;;;;;;5050798;28;20245;-42
2022/09/05 04:01:15;;;;;;;2.72;2.08;;;21.20;81.40;;;;;;5069270;28;20253;-39
2022/09/05 04:04:32;;;;;;;1.98;1.80;;;21.20;81.80;;;;;;5064408;28;20215;-38
2022/09/05 04:07:37;;;;;;;2.75;2.20;;;21.10;81.60;;;;;;5060526;28;20204;-38
2022/09/05 04:10:39;;;;;;;3.60;2.00;;;21.10;81.80;;;;;;5075102;28;20236;-39
2022/09/05 04:13:36;;;;;;;2.10;1.90;;;21.10;81.70;;;;;;5053908;28;20270;-38
2022/09/05 04:16:20;;;;;;;4.00;2.58;;;21.10;81.80;;;;;;5070277;28;20554;-38
2022/09/05 04:19:04;;;;;;;2.78;2.00;;;21.00;81.40;;;;;;5070390;28;20214;-42
2022/09/05 04:21:43;;;;;;;2.80;1.98;;;21.00;82.20;;;;;;5059097;28;20614;-41
2022/09/05 04:24:45;;;;;;;3.17;2.10;;;21.00;81.70;;;;;;5059128;28;20207;-42
2022/09/05 04:27:19;;;;;;;3.08;2.30;;;21.00;81.90;;;;;;5067627;28;20591;-43
2022/09/05 04:29:57;;;;;;;2.63;1.98;;;21.00;81.80;;;;;;5068390;28;20203;-42
2022/09/05 04:32:36;;;;;;;3.75;2.10;;;21.00;81.90;;;;;;5069720;28;20831;-42
2022/09/05 04:35:18;;;;;;;3.22;1.98;;;21.00;81.80;;;;;;5068346;28;20621;-41
2022/09/05 04:38:04;;;;;;;3.97;2.25;;;20.90;81.60;;;;;;5066558;28;20264;-38
2022/09/05 04:40:57;;;;;;;3.42;2.08;;;21.00;82.00;;;;;;5058159;28;20200;-38
2022/09/05 04:43:42;;;;;;;3.92;2.40;;;20.90;81.70;;;;;;5049452;28;20269;-39
2022/09/05 04:46:30;;;;;;;4.60;2.75;;;20.90;81.80;;;;;;5059551;28;20256;-39
2022/09/05 04:49:25;;;;;;;3.60;2.55;;;20.90;81.80;;;;;;5063943;28;20196;-39
2022/09/05 04:52:25;;;;;;;5.25;2.60;;;20.90;82.00;;;;;;5064129;28;20223;-39
2022/09/05 04:55:09;;;;;;;5.40;2.22;;;20.90;82.30;;;;;;5061572;28;20611;-38
2022/09/05 04:58:01;;;;;;;6.97;2.75;;;20.80;81.90;;;;;;5065742;28;20200;-39
2022/09/05 05:00:36;;;;;;;6.63;2.42;;;20.80;82.20;;;;;;5049564;28;20294;-38
2022/09/05 05:03:30;;;;;;;5.07;2.33;;;20.80;82.10;;;;;;5047871;28;20204;-38
2022/09/05 05:06:33;;;;;;;3.03;2.10;;;20.80;82.20;;;;;;5049621;28;20616;-38
2022/09/05 05:09:17;;;;;;;7.97;2.92;;;20.80;82.40;;;;;;5049223;28;20216;-38
2022/09/05 05:11:57;;;;;;;10.40;3.20;;;20.70;82.00;;;;;;5060158;28;20303;-38
2022/09/05 05:15:00;;;;;;;6.57;2.20;;;20.70;82.30;;;;;;5059348;28;20674;-38
2022/09/05 05:18:14;;;;;;;5.45;2.40;;;20.70;82.20;;;;;;5051557;28;20227;-38
2022/09/05 05:21:17;;;;;;;4.97;2.30;;;20.70;82.50;;;;;;5052155;28;20515;-38
2022/09/05 05:24:08;;;;;;;7.65;2.70;;;20.60;82.20;;;;;;5052253;28;20204;-38
2022/09/05 05:27:10;;;;;;;4.07;2.38;;;20.60;82.20;;;;;;5052486;28;20258;-41
2022/09/05 05:29:52;;;;;;;4.53;2.25;;;20.60;82.50;;;;;;5056377;28;20793;-42
2022/09/05 05:32:26;;;;;;;6.82;2.75;;;20.60;82.40;;;;;;5058464;28;20335;-41
2022/09/05 05:35:24;;;;;;;6.88;2.25;;;20.60;82.50;;;;;;5056672;28;20710;-42
2022/09/05 05:38:25;;;;;;;5.53;2.28;;;20.70;82.50;;;;;;5052239;28;20681;-41
2022/09/05 05:41:08;;;;;;;3.83;1.95;;;20.70;82.70;;;;;;5053096;28;20219;-40
2022/09/05 05:43:41;;;;;;;3.10;2.38;;;20.70;82.50;;;;;;5051657;28;20269;-47
2022/09/05 05:46:23;;;;;;;4.35;2.30;;;20.70;82.70;;;;;;5053646;28;20196;-47
2022/09/05 05:48:56;;;;;;;8.18;2.70;;;20.80;82.70;;;;;;5056137;28;20574;-47
2022/09/05 05:51:32;;;;;;;7.93;2.55;;;20.80;82.60;;;;;;5046526;28;20220;-47
2022/09/05 05:54:45;;;;;;;2.05;1.80;;;20.90;82.80;;;;;;5049973;28;20258;-47
2022/09/05 05:57:20;;;;;;;3.53;1.88;;;20.90;82.80;;;;;;5045493;28;20335;-47
2022/09/05 06:00:11;;;;;;;2.35;1.98;;;21.00;82.80;;;;;;5057647;28;20239;-46
2022/09/05 06:03:18;;;;;;;2.97;2.30;;;21.00;82.90;;;;;;5048349;28;20887;-46
2022/09/05 06:06:15;;;;;;;5.28;2.28;;;21.10;83.20;;;;;;5059114;28;20634;-41
2022/09/05 06:08:57;;;;;;;5.07;2.00;;;21.20;83.10;;;;;;5057203;28;20215;-41
2022/09/05 06:12:10;;;;;;;3.35;2.03;;;21.20;83.10;;;;;;5049219;28;20230;-41
2022/09/05 06:15:39;;;;;;;3.65;1.92;;;21.30;83.30;;;;;;5052848;28;20447;-41
2022/09/05 06:18:26;;;;;;;2.72;1.90;;;21.30;83.30;;;;;;5059770;28;20341;-40
2022/09/05 06:21:06;;;;;;;4.60;2.15;;;21.30;83.30;;;;;;5066698;28;20298;-41
2022/09/05 06:24:14;;;;;;;4.53;2.10;;;21.40;83.50;;;;;;5047745;28;20215;-40
2022/09/05 06:27:26;;;;;;;2.15;1.95;;;21.40;83.50;;;;;;5047823;28;20332;-40
2022/09/05 06:30:18;;;;;;;4.72;2.08;;;21.50;83.50;;;;;;5046840;28;20550;-40
2022/09/05 06:32:51;;;;;;;4.35;2.35;;;21.50;83.50;;;;;;5048253;28;20255;-40
2022/09/05 06:35:39;;;;;;;2.90;2.08;;;21.50;83.60;;;;;;5045878;28;20204;-40
2022/09/05 06:38:22;;;;;;;5.75;2.28;;;21.60;83.70;;;;;;5059944;28;20203;-40
2022/09/05 06:40:51;;;;;;;5.82;2.42;;;21.60;83.70;;;;;;5044575;28;20223;-41
2022/09/05 06:43:37;;;;;;;2.47;1.80;;;21.70;83.70;;;;;;5049163;28;20225;-39
2022/09/05 06:46:20;;;;;;;3.25;1.88;;;21.80;83.90;;;;;;5063007;28;20211;-39
2022/09/05 06:49:21;;;;;;;7.18;2.10;;;21.80;83.90;;;;;;5054798;28;20199;-41
2022/09/05 06:52:24;;;;;;;3.35;1.92;;;21.90;84.20;;;;;;5057021;28;20228;-47
2022/09/05 06:55:17;;;;;;;3.35;1.85;;;22.00;84.30;;;;;;5049021;28;20224;-47
2022/09/05 06:58:09;;;;;;;3.83;1.95;;;22.00;84.30;;;;;;5051077;28;20576;-47
2022/09/05 07:00:47;;;;;;;3.55;1.80;;;22.10;84.40;;;;;;5050896;28;20203;-41
2022/09/05 07:03:46;;;;;;;2.88;2.03;;;22.20;84.50;;;;;;5050964;28;20199;-40
2022/09/05 07:06:32;;;;;;;2.78;1.88;;;22.20;84.50;;;;;;5047930;28;21048;-40
2022/09/05 07:09:32;;;;;;;3.55;1.88;;;22.30;84.60;;;;;;5048871;28;20611;-42
2022/09/05 07:12:20;;;;;;;3.28;1.90;;;22.30;84.60;;;;;;5058890;28;20242;-40
2022/09/05 07:14:58;;;;;;;3.08;1.88;;;22.40;84.70;;;;;;5051165;28;20200;-40
2022/09/05 07:17:48;;;;;;;4.95;1.63;;;22.50;84.90;;;;;;5059576;28;20313;-40
2022/09/05 07:20:48;;;;;;;6.63;2.10;;;22.50;84.90;;;;;;5058069;28;20206;-41
2022/09/05 07:23:39;;;;;;;5.55;2.10;;;22.60;85.10;;;;;;5065037;28;20211;-40
2022/09/05 07:26:33;;;;;;;2.88;2.05;;;22.70;85.20;;;;;;5060450;28;20520;-40
2022/09/05 07:29:34;;;;;;;2.60;1.80;;;22.80;85.40;;;;;;5060447;28;20215;-41
2022/09/05 07:32:05;;;;;;;4.68;1.80;;;22.90;85.50;;;;;;5059031;28;20314;-40
2022/09/05 07:34:37;;;;;;;2.08;1.70;;;23.00;85.60;;;;;;5048284;28;20277;-40
2022/09/05 07:37:14;;;;;;;2.42;1.75;;;23.00;85.60;;;;;;5064740;28;20225;-47
2022/09/05 07:39:58;;;;;;;4.95;1.90;;;23.10;85.90;;;;;;5059949;28;20245;-47
2022/09/05 07:42:57;;;;;;;3.58;2.22;;;23.20;85.90;;;;;;5049898;28;20322;-47
2022/09/05 07:45:54;;;;;;;5.40;2.38;;;23.30;86.10;;;;;;5048036;28;20211;-47
2022/09/05 07:48:27;;;;;;;4.60;2.22;;;23.40;86.10;;;;;;5073217;28;20204;-46
2022/09/05 07:51:09;;;;;;;3.33;1.92;;;23.40;86.20;;;;;;5048869;28;20218;-46
2022/09/05 07:54:05;;;;;;;2.40;1.83;;;23.50;86.20;;;;;;5047600;28;20204;-45
2022/09/05 07:56:58;;;;;;;4.93;1.80;;;23.60;86.40;;;;;;5043115;28;20322;-40
2022/09/05 07:59:56;;;;;;;6.78;2.40;;;23.60;86.40;;;;;;5046602;28;20236;-39
2022/09/05 08:02:25;;;;;;;3.75;1.95;;;23.80;87.30;;;;;;5053283;28;20192;-41
2022/09/05 08:05:02;;;;;;;3.70;1.92;;;23.80;86.60;;;;;;5051392;28;20204;-40
2022/09/05 08:07:37;;;;;;;6.60;2.30;;;23.90;86.90;;;;;;5058684;28;20620;-41
2022/09/05 08:10:32;;;;;;;3.25;2.10;;;23.90;86.80;;;;;;5049081;28;20201;-40
2022/09/05 08:13:28;;;;;;;3.10;1.70;;;24.10;87.10;;;;;;5055714;28;20798;-39
2022/09/05 08:15:58;;;;;;;3.50;1.80;;;24.20;87.00;;;;;;5053855;28;20292;-46
2022/09/05 08:18:44;;;;;;;8.43;1.98;;;24.20;87.10;;;;;;5060450;28;20535;-47
2022/09/05 08:21:33;;;;;;;2.63;1.58;;;24.30;87.00;;;;;;5055912;28;20264;-40
2022/09/05 08:24:10;;;;;;;2.05;1.70;;;24.40;87.10;;;;;;5058743;28;20849;-41
2022/09/05 08:26:58;;;;;;;6.07;2.00;;;24.50;87.10;;;;;;5060158;28;20222;-41
2022/09/05 08:29:35;;;;;;;2.58;1.70;;;24.70;87.20;;;;;;5052640;28;20196;-41
2022/09/05 08:32:11;;;;;;;4.03;1.90;;;24.70;87.30;;;;;;5067045;28;20226;-41
2022/09/05 08:34:53;;;;;;;8.57;2.38;;;24.90;87.50;;;;;;5059172;28;20252;-40
2022/09/05 08:37:24;;;;;;;3.13;1.92;;;25.00;87.60;;;;;;5060634;28;20200;-40
2022/09/05 08:39:55;;;;;;;6.47;1.95;;;25.10;87.60;;;;;;5057373;28;20848;-42
2022/09/05 08:42:59;;;;;;;2.67;1.60;;;25.20;85.80;;;;;;5064167;28;20231;-41
2022/09/05 08:46:40;;;;;;;3.88;1.50;;;25.30;86.80;;;;;;5053175;28;20228;-41
2022/09/05 08:49:57;;;;;;;2.35;1.65;;;25.40;86.40;;;;;;5076128;28;20283;-40
2022/09/05 08:52:35;;;;;;;4.22;1.73;;;25.60;84.20;;;;;;5050465;28;20729;-40
2022/09/05 08:55:30;;;;;;;3.15;1.48;;;25.70;85.20;;;;;;5052105;28;20292;-40
2022/09/05 08:58:03;;;;;;;4.13;1.35;;;25.80;85.10;;;;;;5053014;28;20219;-40
2022/09/05 09:00:59;;;;;;;2.40;1.50;;;25.80;84.70;;;;;;5068046;28;20297;-46
2022/09/05 09:03:50;;;;;;;1.35;1.25;;;25.90;85.30;;;;;;5053552;28;20204;-47
2022/09/05 09:06:35;;;;;;;4.05;1.85;;;26.00;85.60;;;;;;5054398;28;20263;-47
2022/09/05 09:09:17;;;;;;;5.15;1.50;;;26.10;85.20;;;;;;5050718;28;20299;-46
2022/09/05 09:12:35;;;;;;;10.35;2.53;;;26.10;84.80;;;;;;5057415;28;20563;-46
2022/09/05 09:15:46;;;;;;;2.42;1.45;;;26.20;84.90;;;;;;5053323;28;20299;-45
2022/09/05 09:18:20;;;;;;;4.75;1.88;;;26.30;85.50;;;;;;5046334;28;20204;-43
2022/09/05 09:20:51;;;;;;;9.10;2.65;;;26.40;85.80;;;;;;5060047;28;20245;-46
2022/09/05 09:23:52;;;;;;;2.58;1.20;;;26.50;86.00;;;;;;5067593;28;20226;-46
2022/09/05 09:26:27;;;;;;;2.40;1.23;;;26.50;85.90;;;;;;5050528;28;20671;-46
2022/09/05 09:29:02;;;;;;;3.80;1.50;;;26.60;85.90;;;;;;5059671;28;20297;-46
2022/09/05 09:31:58;;;;;;;2.42;1.40;;;26.70;85.90;;;;;;5062909;28;20250;-45
2022/09/05 09:34:51;;;;;;;2.05;1.65;;;26.70;83.00;;;;;;5048434;28;20215;-46
2022/09/05 09:37:54;;;;;;;2.50;1.17;;;26.80;85.30;;;;;;5048474;28;20213;-45
2022/09/05 09:40:38;;;;;;;2.10;1.40;;;26.90;84.80;;;;;;5062203;28;20218;-45
2022/09/05 09:43:26;;;;;;;2.40;1.30;;;26.90;85.10;;;;;;5063583;28;20239;-46
2022/09/05 09:46:16;;;;;;;6.10;1.40;;;27.00;85.30;;;;;;5060425;28;20899;-46
2022/09/05 09:49:06;;;;;;;6.63;1.50;;;27.10;85.60;;;;;;5049324;28;20219;-54
2022/09/05 09:52:07;;;;;;;4.22;1.70;;;27.10;84.20;;;;;;5055949;28;20199;-52
2022/09/05 09:55:01;;;;;;;6.00;2.00;;;27.30;83.70;;;;;;5055505;28;20220;-50
2022/09/05 09:58:06;;;;;;;3.13;1.58;;;27.40;83.40;;;;;;5052177;28;20196;-52
2022/09/05 10:00:50;;;;;;;6.85;1.35;;;27.40;84.60;;;;;;5047463;28;20231;-51
2022/09/05 10:03:39;;;;;;;6.32;1.60;;;27.50;84.90;;;;;;5049605;28;20261;-53
2022/09/05 10:06:52;;;;;;;10.73;2.20;;;27.50;84.10;;;;;;5055240;28;20211;-52
2022/09/05 10:09:49;;;;;;;2.97;1.70;;;27.60;83.30;;;;;;5050657;28;20636;-52
2022/09/05 10:13:06;;;;;;;5.10;1.48;;;27.70;82.50;;;;;;5047566;28;20243;-53
2022/09/05 10:15:58;;;;;;;3.20;1.65;;;27.80;83.60;;;;;;5056069;28;20196;-45
2022/09/05 10:18:40;;;;;;;2.00;1.30;;;27.80;83.70;;;;;;5054189;28;20252;-45
2022/09/05 10:21:27;;;;;;;2.67;1.60;;;27.90;84.60;;;;;;5049246;28;20226;-53
2022/09/05 10:24:20;;;;;;;4.25;1.42;;;27.90;84.50;;;;;;5049656;28;20705;-50
2022/09/05 10:26:59;;;;;;;2.17;1.50;;;28.00;83.90;;;;;;5063104;28;20693;-52
2022/09/05 10:30:01;;;;;;;2.55;1.48;;;28.10;84.70;;;;;;5056531;28;20727;-53
2022/09/05 10:32:58;;;;;;;1.77;1.50;;;28.10;85.10;;;;;;5047634;28;20311;-50
2022/09/05 10:35:52;;;;;;;2.15;1.50;;;28.20;85.30;;;;;;5056716;28;20211;-52
2022/09/05 10:38:39;;;;;;;2.67;1.55;;;28.20;85.30;;;;;;5055462;28;20265;-52
2022/09/05 10:41:12;;;;;;;3.13;1.90;;;28.30;85.30;;;;;;5053461;28;20992;-52
2022/09/05 10:44:01;;;;;;;4.80;2.13;;;28.40;85.40;;;;;;5045267;28;20227;-52
2022/09/05 10:46:51;;;;;;;6.85;2.20;;;28.50;84.50;;;;;;5044561;28;20212;-52
2022/09/05 10:49:33;;;;;;;4.05;1.80;;;28.60;82.80;;;;;;5049677;28;20199;-52
2022/09/05 10:52:15;;;;;;;2.97;1.50;;;28.60;84.60;;;;;;5054044;28;20593;-52
2022/09/05 10:54:59;;;;;;;9.45;2.42;;;28.70;84.90;;;;;;5062857;28;20200;-52
2022/09/05 10:57:58;;;;;;;10.65;1.63;;;28.70;85.30;;;;;;5054237;28;21045;-51
2022/09/05 11:00:53;;;;;;;3.67;1.60;;;28.70;84.80;;;;;;5048695;28;20555;-54
2022/09/05 11:03:54;;;;;;;8.30;2.13;;;28.80;85.40;;;;;;5052935;28;20200;-52
2022/09/05 11:06:47;;;;;;;6.65;2.53;;;28.80;85.10;;;;;;5053297;28;20243;-52
2022/09/05 11:09:49;;;;;;;8.02;2.47;;;28.90;84.80;;;;;;5069785;28;20302;-51
2022/09/05 11:12:40;;;;;;;6.43;1.65;;;28.90;85.20;;;;;;5052998;28;20299;-52
2022/09/05 11:15:57;;;;;;;15.45;3.00;;;29.00;85.30;;;;;;5050309;28;20211;-51
2022/09/05 11:18:53;;;;;;;7.43;3.00;;;29.10;85.50;;;;;;5058513;28;20265;-52
2022/09/05 11:21:50;;;;;;;2.90;1.70;;;29.20;84.90;;;;;;5053694;28;20219;-53
2022/09/05 11:24:59;;;;;;;1.50;1.20;;;29.20;84.50;;;;;;5053635;28;20200;-53
2022/09/05 11:27:26;;;;;;;2.72;1.60;;;29.20;85.30;;;;;;5059328;28;20204;-52
2022/09/05 11:30:12;;;;;;;4.47;1.80;;;29.30;84.80;;;;;;5060459;28;20195;-52
2022/09/05 11:33:08;;;;;;;2.95;1.48;;;29.30;83.60;;;;;;5063273;28;20289;-49
2022/09/05 11:36:30;;;;;;;4.72;2.00;;;29.40;84.40;;;;;;5055948;28;20658;-50
2022/09/05 11:39:49;;;;;;;2.97;1.50;;;29.40;84.50;;;;;;5055617;28;20202;-53
2022/09/05 11:42:58;;;;;;;7.25;2.22;;;29.50;85.10;;;;;;5063547;28;20279;-53
2022/09/05 11:46:08;;;;;;;10.50;2.55;;;29.50;85.20;;;;;;5049218;28;20208;-53
2022/09/05 11:49:13;;;;;;;23.88;5.00;;;29.50;85.20;;;;;;5063527;28;20225;-53
2022/09/05 11:52:20;;;;;;;10.23;2.85;;;29.50;85.20;;;;;;5068902;28;20203;-54
2022/09/05 11:55:10;;;;;;;11.93;3.35;;;29.60;85.10;;;;;;5062751;28;20207;-53
2022/09/05 11:58:06;;;;;;;12.43;2.38;;;29.60;85.20;;;;;;5054455;28;20293;-53
2022/09/05 12:01:26;;;;;;;1.92;1.40;;;29.60;85.00;;;;;;5061546;28;20198;-53
2022/09/05 12:04:44;;;;;;;12.05;2.22;;;29.70;84.30;;;;;;5050503;28;20204;-52
2022/09/05 12:07:49;;;;;;;5.15;1.77;;;29.70;84.40;;;;;;5055146;28;20231;-51
2022/09/05 12:10:57;;;;;;;2.80;1.45;;;29.80;84.00;;;;;;5051043;28;20628;-51
2022/09/05 12:13:46;;;;;;;4.85;1.35;;;29.80;84.40;;;;;;5065261;28;20589;-52
2022/09/05 12:16:31;;;;;;;2.67;1.52;;;29.80;84.30;;;;;;5047561;28;20577;-53
2022/09/05 12:19:17;;;;;;;3.35;1.70;;;29.90;84.80;;;;;;5054584;28;20204;-54
2022/09/05 12:22:23;;;;;;;5.07;2.03;;;29.90;84.90;;;;;;5056063;28;20685;-53
2022/09/05 12:25:25;;;;;;;5.88;2.00;;;30.00;85.10;;;;;;5066401;28;20217;-50
2022/09/05 12:28:25;;;;;;;2.25;1.40;;;30.00;84.80;;;;;;5058285;28;20265;-53
2022/09/05 12:31:31;;;;;;;2.97;1.58;;;30.00;84.60;;;;;;5049766;28;20622;-52
2022/09/05 12:34:40;;;;;;;2.47;1.40;;;30.10;84.20;;;;;;5049659;28;20228;-53
2022/09/05 12:37:59;;;;;;;2.00;1.50;;;30.10;84.30;;;;;;5049628;28;20231;-53
2022/09/05 12:41:02;;;;;;;3.25;1.55;;;30.20;84.40;;;;;;5047897;28;20204;-52
2022/09/05 12:44:04;;;;;;;3.00;1.50;;;30.20;84.10;;;;;;5048277;28;20291;-54
2022/09/05 12:47:12;;;;;;;3.03;1.25;;;30.30;83.70;;;;;;5060911;28;20207;-53
2022/09/05 12:49:55;;;;;;;2.88;1.30;;;30.30;84.40;;;;;;5054639;28;20290;-53
2022/09/05 12:52:31;;;;;;;5.55;1.50;;;30.30;83.90;;;;;;5049987;28;20212;-54
2022/09/05 12:55:16;;;;;;;3.97;1.42;;;30.40;82.80;;;;;;5060555;28;20206;-52
2022/09/05 12:57:54;;;;;;;4.00;1.25;;;30.50;83.10;;;;;;5068386;28;20219;-53
2022/09/05 13:00:46;;;;;;;6.88;1.90;;;30.60;83.40;;;;;;5048579;28;20392;-52
2022/09/05 13:03:50;;;;;;;3.45;1.40;;;30.60;83.30;;;;;;5060263;28;20309;-52
2022/09/05 13:06:44;;;;;;;3.95;1.60;;;30.60;82.40;;;;;;5052454;28;20203;-52
2022/09/05 13:09:20;;;;;;;6.47;1.88;;;30.70;83.30;;;;;;5052218;28;20247;-45
2022/09/05 13:12:08;;;;;;;3.13;1.58;;;30.70;82.90;;;;;;5057425;28;20328;-45
2022/09/05 13:15:35;;;;;;;3.10;1.10;;;30.80;83.50;;;;;;5049690;28;20314;-52
2022/09/05 13:18:15;;;;;;;1.17;1.08;;;30.80;83.10;;;;;;5050849;28;20222;-53
2022/09/05 13:20:50;;;;;;;2.80;1.52;;;30.90;83.70;;;;;;5055388;28;20208;-52
2022/09/05 13:23:21;;;;;;;2.83;1.50;;;30.90;83.40;;;;;;5047298;28;20821;-54
2022/09/05 13:26:06;;;;;;;1.58;1.30;;;30.90;83.50;;;;;;5048829;28;20569;-52
2022/09/05 13:29:11;;;;;;;1.60;1.40;;;31.00;82.20;;;;;;5050691;28;20208;-54
2022/09/05 13:31:39;;;;;;;5.65;1.92;;;31.00;82.80;;;;;;5047885;28;20239;-56
2022/09/05 13:34:41;;;;;;;4.50;1.60;;;31.00;83.10;;;;;;5048080;28;20581;-51
2022/09/05 13:37:54;;;;;;;6.15;1.60;;;31.10;83.20;;;;;;5046819;28;20196;-51
2022/09/05 13:40:48;;;;;;;12.20;2.20;;;31.10;83.40;;;;;;5048423;28;20828;-51
2022/09/05 13:43:25;;;;;;;5.70;1.50;;;31.20;82.90;;;;;;5047717;28;20226;-53
2022/09/05 13:46:30;;;;;;;6.55;1.60;;;31.20;83.00;;;;;;5058017;28;20635;-52
2022/09/05 13:49:23;;;;;;;4.07;2.15;;;31.30;82.90;;;;;;5047397;28;20624;-49
2022/09/05 13:52:14;;;;;;;7.72;2.03;;;31.30;83.20;;;;;;5051710;28;20223;-51
2022/09/05 13:54:49;;;;;;;3.92;1.65;;;31.30;82.10;;;;;;5053914;28;20258;-53
2022/09/05 13:57:38;;;;;;;16.38;3.15;;;31.30;82.60;;;;;;5063989;28;20315;-53
2022/09/05 14:00:14;;;;;;;7.30;2.42;;;31.40;82.60;;;;;;5052245;28;20254;-50
2022/09/05 14:03:32;;;;;;;4.35;1.42;;;31.40;82.90;;;;;;5058740;28;20204;-53
2022/09/05 14:06:24;;;;;;;4.47;1.67;;;31.40;83.10;;;;;;5059270;28;20197;-54
2022/09/05 14:09:38;;;;;;;1.95;1.42;;;31.50;83.30;;;;;;5063031;28;20257;-53
2022/09/05 14:12:26;;;;;;;2.28;1.38;;;31.60;83.60;;;;;;5061830;28;20206;-53
2022/09/05 14:15:12;;;;;;;3.25;1.73;;;31.60;82.30;;;;;;5065143;28;20234;-52
2022/09/05 14:17:58;;;;;;;1.65;1.55;;;31.70;82.40;;;;;;5046916;28;20211;-52
2022/09/05 14:23:35;;;;;;;2.38;1.55;;;31.80;82.40;;;;;;5053979;28;20293;-52
2022/09/05 14:26:13;;;;;;;6.43;2.22;;;31.80;82.40;;;;;;5060293;28;20223;-52
2022/09/05 14:29:08;;;;;;;3.33;1.80;;;31.90;82.40;;;;;;5046831;28;20242;-51
2022/09/05 14:31:49;;;;;;;8.30;1.90;;;31.90;81.70;;;;;;5053309;28;20300;-52
2022/09/05 14:34:52;;;;;;;2.85;1.48;;;31.90;82.10;;;;;;5049862;28;20236;-52
2022/09/05 14:38:07;;;;;;;3.42;1.70;;;32.00;82.50;;;;;;5059924;28;20318;-53
2022/09/05 14:40:50;;;;;;;2.08;1.50;;;32.00;82.70;;;;;;5046836;28;20670;-51
2022/09/05 14:43:54;;;;;;;5.75;1.55;;;32.00;82.60;;;;;;5046562;28;20211;-51
2022/09/05 14:46:53;;;;;;;5.93;1.63;;;32.10;82.70;;;;;;5051785;28;20528;-52
2022/09/05 14:49:58;;;;;;;3.67;1.90;;;32.20;82.90;;;;;;5051992;28;20203;-52
2022/09/05 14:52:28;;;;;;;4.00;1.80;;;32.30;82.50;;;;;;5049453;28;20210;-50
2022/09/05 14:54:58;;;;;;;2.05;1.52;;;32.30;81.80;;;;;;5057281;28;20637;-54
2022/09/05 14:57:49;;;;;;;2.58;1.45;;;32.30;82.10;;;;;;5054755;28;20231;-51